View Sortable Currents For Network
ASOSAWOSCoCoRaHSCOOPDCPISUSM
SchoolNetOtherSCANMy FavoritesBy StateRWIS
RWIS SurfaceRWIS TrafficRWIS SoilBy NWS WFOUSCRN

Current AWOS Conditions

** This page will automatically refresh every five minutes.
Sorted by: (Peak Gust [knots])     Click on a column to sort it.

Add ID: Name: Ob Time   Wind [knots]   Rainfall
Temp (Hi / Lo) DewP Feels RH% Dir Speed Peak Gust
@ Time
Alti Vsby Hour Today
MXOMONTICELLO MUNI06:15 PM 39(50/39) 18 32 42 330 10G1846 @ 11:35 AM 30.28 10 0
HPTHampton06:15 PM 37(45/37) 19 31 48 330 743 @ 11:15 AM 30.32 10 0
AWGWASHINGTON06:15 PM 41(52/41) 21 35 44 330 9G1643 @ 11:15 AM 30.32 10 0
DEHDECORAH06:15 PM 37(45/37) 18 30 46 330 942 @ 12:15 PM 30.26 10 0
CWICLINTON05:56 PM 41(50/37) 16 34 36 330 1042 @ 12:42 PM 30.25 10 0
CAVCLARION06:15 PM 39(46/39) 19 32 44 340 941 @ 11:15 AM 30.34 10 0
AXAALGONA06:15 PM 41(46/39) 18 35 39 340 840 @ 10:35 AM 30.33 10 0
MUTMUSCATINE06:15 PM 43(52/43) 16 37 33 340 10G1740 @ 11:15 AM 30.3 10 0
CCYCHARLES CITY06:15 PM 37(46/37) 18 30 46 330 9G1439 @ 07:15 AM 30.31 10 0
TNUNEWTON MUNI06:15 PM 41(48/41) 19 34 41 340 11G1639 @ 01:35 PM 30.34 10 0
IFAIowa Falls06:35 PM 38(47/38) 22 33 52 310 639 @ 10:15 AM 30.34 10 0
FXYForest City06:15 PM 39(43/37) 23 33 52 320 739 @ 10:35 AM 30.32 10 0
OLZOELWEIN06:15 PM 39(46/39) 16 32 39 320 9G1839 @ 08:15 AM 30.29 0
EBSWebster City06:15 PM 39(46/39) 19 32 44 330 938 @ 12:15 PM 30.33 10 0
IIBINDEPENDENCE06:15 PM 39(48/39) 19 33 44 320 738 @ 08:55 AM 30.3 10 0
VTIVINTON06:35 PM 38(48/38) 17 33 42 320 637 @ 10:15 AM 30.32 10 0
FFLFAIRFIELD06:15 PM 41(52/41) 16 34 36 330 1037 @ 01:15 PM 30.31 10 0
EOKKEOKUK MUNI06:15 PM 43(55/43) 19 38 38 330 7G1636 @ 11:35 AM 30.3 10 0
OXVKnoxville06:15 PM 43(50/43) 18 37 36 340 10G1536 @ 01:15 PM 30.33 10 0
CNCCHARITON06:15 PM 43(54/41) 19 36 38 320 12G1835 @ 01:15 PM 30.33 10 0
GGIGrinnell06:35 PM 38(48/38) 19 34 46 320 535 @ 09:55 AM 30.35 10 0
MPZMOUNT PLEASANT06:15 PM 43(54/43) 23 37 45 330 935 @ 12:35 PM 30.31 10 0
OOAOskaloosa06:15 PM 41(52/37) 20 35 43 340 935 @ 11:35 AM 30.33 10 0
FSWFORT MADISON06:15 PM 43(55/43) 21 37 41 320 9G1534 @ 01:55 PM 30.32 10 0
BNWBOONE MUNI06:15 PM 39(48/39) 19 32 44 330 1034 @ 11:35 AM 30.33 10 0
PEAPELLA06:15 PM 42(51/42) 20 38 41 340 6G1633 @ 11:15 AM 30.35 10 0
HNRHARLAN06:15 PM 46(52/41) 21 42 37 10 633 @ 11:55 AM 30.36 10 0
ADUAUDUBON06:15 PM 45(50/43) 19 35 0 033 @ 10:55 AM 30.36 10 0
CSQCRESTON06:15 PM 45(54/37) 19 39 35 360 10G1533 @ 12:15 PM 30.35 10 0
SLBStorm Lake06:15 PM 41(48/36) 18 36 39 340 632 @ 11:35 AM 30.35 10 0
AIOATLANTIC06:15 PM 46(52/43) 23 42 40 350 632 @ 11:15 AM 30.35 10 0
TVKCenterville06:15 PM 41(55/41) 23 33 48 340 12G1732 @ 11:55 AM 30.34 10 0
ICLCLARINDA06:15 PM 50(57/41) 23 46 34 20 1032 @ 11:35 AM 30.37 10 0
CINCARROLL06:15 PM 43(50/41) 18 38 36 350 832 @ 10:35 AM 30.35 10 0
SDASHENANDOAH MUNI06:15 PM 52(59/36) 23 45 32 350 6G1131 @ 11:55 AM 30.35 10 0
SHLSHELDON06:15 PM 41(46/36) 18 37 39 330 531 @ 10:55 AM 30.34 10 0
DNSDENISON06:15 PM 43(50/39) 25 39 49 340 530 @ 11:15 AM 30.36 10 0
I75Osceola06:15 PM 44(54/40) 22 38 41 330 930 @ 10:55 AM 30.34 10 0
RDKRED OAK06:15 PM 48(57/39) 27 44 44 20 730 @ 01:55 PM 30.35 10 0
FODFORT DODGE05:56 PM 42(48/40) 18 37 38 330 729 @ 10:52 AM 30.35 10 0 0
PROPerry06:55 PM 41(50/41) 17 37 0 028 @ 11:15 AM 30.35 10 0
LRJLE MARS06:15 PM 45(48/37) 21 42 38 10 528 @ 10:35 AM 30.36 10 0
CBFCOUNCIL BLUFFS06:15 PM 50(54/39) 21 47 32 360 627 @ 11:35 AM 30.35 10 0
CKPCherokee06:15 PM 41(46/38) 19 38 41 360 427 @ 09:55 AM 30.36 10 0
ORCOrange City06:15 PM 45(46/36) 21 44 38 330 326 @ 10:35 AM 30.36 10 0
IKVANKENY06:15 PM 43(50/43) 18 36 13 @ 12:15 AM 30.36 10 0